createdAt,value
2019-02-24T00:01:23.947Z,10.57
2019-02-24T00:04:05.062Z,9.93
2019-02-24T00:06:45.866Z,10.13
2019-02-24T00:09:26.550Z,10.40
2019-02-24T00:12:07.090Z,10.73
2019-02-24T00:14:48.072Z,10.23
2019-02-24T00:17:28.827Z,9.93
2019-02-24T00:20:09.695Z,9.83
2019-02-24T00:22:50.442Z,10.30
2019-02-24T00:25:31.044Z,9.87
2019-02-24T00:28:11.530Z,10.20
2019-02-24T00:30:51.997Z,9.83
2019-02-24T00:33:20.568Z,10.73
2019-02-24T00:36:08.443Z,10.23
2019-02-24T00:38:56.346Z,9.60
2019-02-24T00:41:44.230Z,9.67
2019-02-24T00:44:32.148Z,9.97
2019-02-24T00:47:20.046Z,9.80
2019-02-24T00:50:08.858Z,9.87
2019-02-24T00:55:50.605Z,9.60
2019-02-24T00:58:38.510Z,10.00
2019-02-24T01:01:26.454Z,8.70
2019-02-24T01:04:14.354Z,9.30
2019-02-24T01:07:02.263Z,9.60
2019-02-24T01:09:50.142Z,10.00
2019-02-24T01:12:38.041Z,9.57
2019-02-24T01:15:25.932Z,9.40
2019-02-24T01:18:13.834Z,8.90
2019-02-24T01:21:01.718Z,9.40
2019-02-24T01:23:49.630Z,9.37
2019-02-24T01:26:37.502Z,9.30
2019-02-24T01:29:25.406Z,8.87
2019-02-24T01:32:13.316Z,9.90
2019-02-24T01:35:01.192Z,10.17
2019-02-24T01:37:49.090Z,10.23
2019-02-24T01:40:36.978Z,9.70
2019-02-24T01:43:24.882Z,9.60
2019-02-24T01:46:12.830Z,9.47
2019-02-24T01:49:00.738Z,9.20
2019-02-24T01:54:37.415Z,9.13
2019-02-24T01:57:25.296Z,8.93
2019-02-24T02:00:13.263Z,8.50
2019-02-24T02:03:01.174Z,9.50
2019-02-24T02:05:49.046Z,8.93
2019-02-24T02:08:36.952Z,9.43
2019-02-24T02:11:24.833Z,9.07
2019-02-24T02:14:12.734Z,9.27
2019-02-24T02:17:00.621Z,9.00
2019-02-24T02:19:48.518Z,9.13
2019-02-24T02:22:36.406Z,8.97
2019-02-24T02:25:24.309Z,8.43
2019-02-24T02:28:05.470Z,9.13
2019-02-24T02:30:46.317Z,8.23
2019-02-24T02:33:27.344Z,8.40
2019-02-24T02:36:08.230Z,8.97
2019-02-24T02:38:48.918Z,8.93
2019-02-24T02:41:30.073Z,9.13
2019-02-24T02:44:14.168Z,9.67
2019-02-24T02:46:54.788Z,9.20
2019-02-24T02:49:35.398Z,9.23
2019-02-24T02:52:16.018Z,9.57
2019-02-24T02:54:56.583Z,9.00
2019-02-24T02:57:36.906Z,9.23
2019-02-24T03:00:17.482Z,9.60
2019-02-24T03:02:58.103Z,10.30
2019-02-24T03:05:40.540Z,9.27
2019-02-24T03:08:23.157Z,9.53
2019-02-24T03:11:04.241Z,9.40
2019-02-24T03:13:44.897Z,10.17
2019-02-24T03:16:27.010Z,10.93
2019-02-24T03:19:07.978Z,9.57
2019-02-24T03:21:48.332Z,10.60
2019-02-24T03:24:28.994Z,9.67
2019-02-24T03:27:09.806Z,9.20
2019-02-24T03:29:50.677Z,9.20
2019-02-24T03:32:31.433Z,9.70
2019-02-24T03:35:12.177Z,9.17
2019-02-24T03:37:52.910Z,8.97
2019-02-24T03:40:33.777Z,8.80
2019-02-24T03:43:14.295Z,9.63
2019-02-24T03:45:54.703Z,9.13
2019-02-24T03:48:35.397Z,9.57
2019-02-24T03:51:15.994Z,9.30
2019-02-24T03:53:56.526Z,10.27
2019-02-24T03:56:37.205Z,9.80
2019-02-24T03:59:17.924Z,9.57
2019-02-24T04:01:58.284Z,9.37
2019-02-24T04:04:39.172Z,9.37
2019-02-24T04:07:19.754Z,9.53
2019-02-24T04:10:00.214Z,8.67
2019-02-24T04:12:40.893Z,9.83
2019-02-24T04:15:21.794Z,9.67
2019-02-24T04:18:02.126Z,9.53
2019-02-24T04:20:42.822Z,9.23
2019-02-24T04:23:23.301Z,9.63
2019-02-24T04:26:04.295Z,9.03
2019-02-24T04:28:45.113Z,9.50
2019-02-24T04:31:25.478Z,9.60
2019-02-24T04:34:05.966Z,9.53
2019-02-24T04:36:46.690Z,9.30
2019-02-24T04:39:27.140Z,9.17
2019-02-24T04:42:07.883Z,9.17
2019-02-24T04:44:48.825Z,8.57
2019-02-24T04:47:29.526Z,9.30
2019-02-24T04:50:10.110Z,8.73
2019-02-24T04:52:50.980Z,8.50
2019-02-24T04:55:31.548Z,8.90
2019-02-24T04:58:12.718Z,9.23
2019-02-24T05:00:53.343Z,9.13
2019-02-24T05:03:34.408Z,8.87
2019-02-24T05:06:15.258Z,9.20
2019-02-24T05:08:55.991Z,8.53
2019-02-24T05:11:36.398Z,8.70
2019-02-24T05:14:17.625Z,8.97
2019-02-24T05:16:58.121Z,8.93
2019-02-24T05:19:38.817Z,9.40
2019-02-24T05:22:19.690Z,8.43
2019-02-24T05:25:00.366Z,8.73
2019-02-24T05:27:40.703Z,8.23
2019-02-24T05:30:21.545Z,9.23
2019-02-24T05:33:02.527Z,9.00
2019-02-24T05:35:43.042Z,9.33
2019-02-24T05:38:23.899Z,9.23
2019-02-24T05:41:04.359Z,8.93
2019-02-24T05:43:45.031Z,9.00
2019-02-24T05:46:25.883Z,7.97
2019-02-24T05:49:06.745Z,8.77
2019-02-24T05:51:47.152Z,8.47
2019-02-24T05:54:29.765Z,7.90
2019-02-24T05:57:10.543Z,8.87
2019-02-24T05:59:55.296Z,8.70
2019-02-24T06:02:33.682Z,8.27
2019-02-24T06:05:14.133Z,8.23
2019-02-24T06:07:55.009Z,8.30
2019-02-24T06:10:35.763Z,9.03
2019-02-24T06:13:04.330Z,8.47
2019-02-24T06:15:52.221Z,7.87
2019-02-24T06:18:40.127Z,8.00
2019-02-24T06:21:28.072Z,8.17
2019-02-24T06:24:15.914Z,8.37
2019-02-24T06:26:56.854Z,8.80
2019-02-24T06:29:37.802Z,8.50
2019-02-24T06:32:18.607Z,7.87
2019-02-24T06:34:59.698Z,8.87
2019-02-24T06:37:40.095Z,8.93
2019-02-24T06:40:20.568Z,8.47
2019-02-24T06:43:01.129Z,8.33
2019-02-24T06:45:42.045Z,8.50
2019-02-24T06:48:22.844Z,8.43
2019-02-24T06:51:05.432Z,8.43
2019-02-24T06:53:46.553Z,9.07
2019-02-24T06:56:27.097Z,8.83
2019-02-24T06:59:07.745Z,8.40
2019-02-24T07:01:48.160Z,8.17
2019-02-24T07:04:28.847Z,8.80
2019-02-24T07:07:09.529Z,8.43
2019-02-24T07:09:50.017Z,9.67
2019-02-24T07:12:30.697Z,10.07
2019-02-24T07:14:59.257Z,9.67
2019-02-24T07:17:47.057Z,9.53
2019-02-24T07:20:34.889Z,9.13
2019-02-24T07:23:22.789Z,9.83
2019-02-24T07:26:10.669Z,10.10
2019-02-24T07:28:51.617Z,9.77
2019-02-24T07:31:32.022Z,10.27
2019-02-24T07:34:13.014Z,10.50
2019-02-24T07:36:53.734Z,9.60
2019-02-24T07:39:34.534Z,9.33
2019-02-24T07:42:15.226Z,9.57
2019-02-24T07:44:55.618Z,10.60
2019-02-24T07:47:36.387Z,10.57
2019-02-24T07:50:17.145Z,9.23
2019-02-24T07:52:57.650Z,9.60
2019-02-24T07:55:38.370Z,10.00
2019-02-24T07:58:18.901Z,10.67
2019-02-24T08:00:59.534Z,9.40
2019-02-24T08:03:39.883Z,9.57
2019-02-24T08:06:20.546Z,10.17
2019-02-24T08:09:01.210Z,9.43
2019-02-24T08:11:41.630Z,9.87
2019-02-24T08:14:22.393Z,9.17
2019-02-24T08:17:02.922Z,8.90
2019-02-24T08:19:43.974Z,9.30
2019-02-24T08:22:24.560Z,9.60
2019-02-24T08:25:05.243Z,8.20
2019-02-24T08:27:46.194Z,8.73
2019-02-24T08:30:27.108Z,8.80
2019-02-24T08:33:08.031Z,8.53
2019-02-24T08:35:48.686Z,8.80
2019-02-24T08:38:29.349Z,8.90
2019-02-24T08:41:10.023Z,7.73
2019-02-24T08:43:50.857Z,8.00
2019-02-24T08:46:31.843Z,8.67
2019-02-24T08:49:12.787Z,8.73
2019-02-24T08:51:53.418Z,9.13
2019-02-24T08:54:33.931Z,9.33
2019-02-24T08:57:14.371Z,9.90
2019-02-24T08:59:54.997Z,10.13
2019-02-24T09:02:35.436Z,8.73
2019-02-24T09:05:15.982Z,9.33
2019-02-24T09:07:56.583Z,9.13
2019-02-24T09:10:37.382Z,8.63
2019-02-24T09:13:18.063Z,8.70
2019-02-24T09:15:58.649Z,8.07
2019-02-24T09:18:39.297Z,7.87
2019-02-24T09:21:20.050Z,8.53
2019-02-24T09:24:00.789Z,8.40
2019-02-24T09:26:41.550Z,8.37
2019-02-24T09:29:22.565Z,8.23
2019-02-24T09:32:03.653Z,7.17
2019-02-24T09:34:44.258Z,7.77
2019-02-24T09:37:24.837Z,8.17
2019-02-24T09:40:05.731Z,7.50
2019-02-24T09:42:46.524Z,8.17
2019-02-24T09:45:27.702Z,7.57
2019-02-24T09:48:08.463Z,7.67
2019-02-24T09:50:49.247Z,7.93
2019-02-24T09:53:30.127Z,8.00
2019-02-24T09:56:10.969Z,7.90
2019-02-24T09:58:51.795Z,7.57
2019-02-24T10:01:32.696Z,8.13
2019-02-24T10:04:13.693Z,7.73
2019-02-24T10:06:54.677Z,7.93
2019-02-24T10:09:35.292Z,7.90
2019-02-24T10:12:15.761Z,7.17
2019-02-24T10:14:56.714Z,7.33
2019-02-24T10:17:37.446Z,7.87
2019-02-24T10:20:18.266Z,7.33
2019-02-24T10:22:58.911Z,7.57
2019-02-24T10:25:39.479Z,7.20
2019-02-24T10:28:20.468Z,7.23
2019-02-24T10:31:01.667Z,7.20
2019-02-24T10:33:42.840Z,7.70
2019-02-24T10:36:23.657Z,6.80
2019-02-24T10:39:04.214Z,7.93
2019-02-24T10:41:44.615Z,7.17
2019-02-24T10:44:25.026Z,6.87
2019-02-24T10:47:05.726Z,7.50
2019-02-24T10:49:46.595Z,6.80
2019-02-24T10:52:27.247Z,7.00
2019-02-24T10:55:08.094Z,6.10
2019-02-24T10:57:48.786Z,6.40
2019-02-24T11:00:29.217Z,6.10
2019-02-24T11:03:09.668Z,5.40
2019-02-24T11:05:50.320Z,4.97
2019-02-24T11:08:31.422Z,5.80
2019-02-24T11:11:11.965Z,6.27
2019-02-24T11:13:52.369Z,6.37
2019-02-24T11:16:32.915Z,6.63
2019-02-24T11:19:13.503Z,6.77
2019-02-24T11:21:54.178Z,6.47
2019-02-24T11:24:34.831Z,6.33
2019-02-24T11:27:15.700Z,6.83
2019-02-24T11:29:56.618Z,7.07
2019-02-24T11:32:37.330Z,6.97
2019-02-24T11:35:17.735Z,7.10
2019-02-24T11:37:58.573Z,6.57
2019-02-24T11:40:39.144Z,7.23
2019-02-24T11:43:19.706Z,6.80
2019-02-24T11:46:00.326Z,6.50
2019-02-24T11:48:41.066Z,6.50
2019-02-24T11:51:22.054Z,6.83
2019-02-24T11:54:03.155Z,6.47
2019-02-24T12:00:02.956Z,6.80
2019-02-24T12:02:43.608Z,6.63
2019-02-24T12:05:24.370Z,6.50
2019-02-24T12:08:05.401Z,6.60
2019-02-24T12:10:46.169Z,6.50
2019-02-24T12:13:27.106Z,7.03
2019-02-24T12:16:08.050Z,6.50
2019-02-24T12:18:48.771Z,6.53
2019-02-24T12:21:29.233Z,7.40
2019-02-24T12:24:09.897Z,6.87
2019-02-24T12:26:50.604Z,7.37
2019-02-24T12:29:30.999Z,7.30
2019-02-24T12:32:11.817Z,7.20
2019-02-24T12:34:52.486Z,6.73
2019-02-24T12:37:33.006Z,6.83
2019-02-24T12:40:13.836Z,6.47
2019-02-24T12:42:54.653Z,6.87
2019-02-24T12:45:35.428Z,7.00
2019-02-24T12:48:15.966Z,6.73
2019-02-24T12:50:56.883Z,7.43
2019-02-24T12:53:37.625Z,6.53
2019-02-24T12:56:18.429Z,7.10
2019-02-24T12:58:46.999Z,7.33
2019-02-24T13:01:34.890Z,7.07
2019-02-24T13:04:22.790Z,6.83
2019-02-24T13:07:10.670Z,6.20
2019-02-24T13:09:58.570Z,6.30
2019-02-24T13:12:46.445Z,6.43
2019-02-24T13:15:34.362Z,6.60
2019-02-24T13:18:22.246Z,6.87
2019-02-24T13:21:10.149Z,7.20
2019-02-24T13:23:58.212Z,6.47
2019-02-24T13:26:45.832Z,6.77
2019-02-24T13:29:26.230Z,6.70
2019-02-24T13:35:26.434Z,6.47
2019-02-24T13:38:07.191Z,6.70
2019-02-24T13:40:48.177Z,6.57
2019-02-24T13:43:29.166Z,6.57
2019-02-24T13:45:58.246Z,6.17
2019-02-24T13:48:46.608Z,6.10
2019-02-24T13:54:43.951Z,6.07
2019-02-24T13:57:31.889Z,6.10
2019-02-24T14:00:20.371Z,6.27
2019-02-24T14:03:08.408Z,5.97
2019-02-24T14:05:56.317Z,5.90
2019-02-24T14:08:44.196Z,5.50
2019-02-24T14:11:32.106Z,5.40
2019-02-24T14:14:20.039Z,5.23
2019-02-24T14:17:07.889Z,5.40
2019-02-24T14:19:55.883Z,5.37
2019-02-24T14:22:43.689Z,5.30
2019-02-24T14:25:31.804Z,5.60
2019-02-24T14:28:12.879Z,5.70
2019-02-24T14:30:53.534Z,5.30
2019-02-24T14:33:34.958Z,5.80
2019-02-24T14:36:16.009Z,5.60
2019-02-24T14:38:56.839Z,5.60
2019-02-24T14:41:37.569Z,5.87
2019-02-24T14:44:18.450Z,5.73
2019-02-24T14:46:59.379Z,6.50
2019-02-24T14:49:40.665Z,6.40
2019-02-24T14:52:21.175Z,5.93
2019-02-24T14:55:02.251Z,6.30
2019-02-24T14:57:42.954Z,5.80
2019-02-24T15:03:32.358Z,6.03
2019-02-24T15:06:13.137Z,6.20
2019-02-24T15:08:53.942Z,5.57
2019-02-24T15:11:34.760Z,6.43
2019-02-24T15:14:15.251Z,5.50
2019-02-24T15:16:55.750Z,5.80
2019-02-24T15:19:36.126Z,6.07
2019-02-24T15:22:16.672Z,6.23
2019-02-24T15:24:57.347Z,6.10
2019-02-24T15:27:37.999Z,5.80
2019-02-24T15:30:18.487Z,5.43
2019-02-24T15:32:59.457Z,6.03
2019-02-24T15:35:40.106Z,5.40
2019-02-24T15:38:21.066Z,5.63
2019-02-24T15:41:01.905Z,5.40
2019-02-24T15:43:42.644Z,5.70
2019-02-24T15:46:23.469Z,5.50
2019-02-24T15:49:04.044Z,6.33
2019-02-24T15:51:45.014Z,6.60
2019-02-24T15:54:25.992Z,6.47
2019-02-24T15:57:10.066Z,5.67
2019-02-24T15:59:51.079Z,6.43
2019-02-24T16:02:31.455Z,6.17
2019-02-24T16:05:12.268Z,6.07
2019-02-24T16:07:53.067Z,6.07
2019-02-24T16:10:33.863Z,5.40
2019-02-24T16:13:17.208Z,5.77
2019-02-24T16:15:57.522Z,5.83
2019-02-24T16:18:38.326Z,5.90
2019-02-24T16:21:18.754Z,5.83
2019-02-24T16:23:59.798Z,5.90
2019-02-24T16:26:40.428Z,6.63
2019-02-24T16:29:21.082Z,5.83
2019-02-24T16:32:02.082Z,5.40
2019-02-24T16:34:42.982Z,5.83
2019-02-24T16:37:23.847Z,5.47
2019-02-24T16:40:04.434Z,6.50
2019-02-24T16:42:45.070Z,6.03
2019-02-24T16:45:25.822Z,5.40
2019-02-24T16:48:06.826Z,5.63
2019-02-24T16:50:47.270Z,6.47
2019-02-24T16:53:28.335Z,6.23
2019-02-24T16:56:09.210Z,5.50
2019-02-24T16:58:49.737Z,6.03
2019-02-24T17:01:18.290Z,11.50
2019-02-24T17:04:06.227Z,23.97
2019-02-24T17:06:54.113Z,17.47
2019-02-24T17:09:42.021Z,10.65
2019-02-24T17:12:29.931Z,10.73
2019-02-24T17:15:17.813Z,10.23
2019-02-24T17:17:46.452Z,8.30
2019-02-24T17:20:34.330Z,7.60
2019-02-24T17:23:22.254Z,6.37
2019-02-24T17:26:10.138Z,7.03
2019-02-24T17:28:51.155Z,8.03
2019-02-24T17:31:31.813Z,7.80
2019-02-24T17:34:12.683Z,7.60
2019-02-24T17:36:53.502Z,7.43
2019-02-24T17:39:34.566Z,6.37
2019-02-24T17:42:15.394Z,6.23
2019-02-24T17:44:56.492Z,6.07
2019-02-24T17:50:45.505Z,6.77
2019-02-24T17:53:26.004Z,6.50
2019-02-24T17:56:06.874Z,6.77
2019-02-24T17:58:47.616Z,6.53
2019-02-24T18:01:28.518Z,6.70
2019-02-24T18:04:09.017Z,6.43
2019-02-24T18:06:49.575Z,6.60
2019-02-24T18:09:30.142Z,7.37
2019-02-24T18:12:10.711Z,7.87
2019-02-24T18:14:51.330Z,6.87
2019-02-24T18:17:31.862Z,6.93
2019-02-24T18:20:12.314Z,6.07
2019-02-24T18:22:53.163Z,7.00
2019-02-24T18:25:33.534Z,6.70
2019-02-24T18:28:02.160Z,6.27
2019-02-24T18:30:50.102Z,6.40
2019-02-24T18:33:37.933Z,6.07
2019-02-24T18:36:25.878Z,6.63
2019-02-24T18:38:54.450Z,7.30
2019-02-24T18:41:42.327Z,7.43
2019-02-24T18:44:30.233Z,7.73
2019-02-24T18:47:18.161Z,6.90
2019-02-24T18:50:26.786Z,7.40
2019-02-24T18:53:14.130Z,6.77
2019-02-24T18:56:02.014Z,6.80
2019-02-24T18:58:49.914Z,6.60
2019-02-24T19:01:37.791Z,7.00
2019-02-24T19:04:25.694Z,6.83
2019-02-24T19:07:13.638Z,6.57
2019-02-24T19:10:01.546Z,6.63
2019-02-24T19:12:49.421Z,6.53
2019-02-24T19:15:37.313Z,7.10
2019-02-24T19:18:25.198Z,7.57
2019-02-24T19:21:13.104Z,6.73
2019-02-24T19:24:01.007Z,6.63
2019-02-24T19:26:48.877Z,7.00
2019-02-24T19:29:29.657Z,6.73
2019-02-24T19:32:10.250Z,6.63
2019-02-24T19:34:50.727Z,6.70
2019-02-24T19:37:31.549Z,6.83
2019-02-24T19:40:12.265Z,6.90
2019-02-24T19:42:53.203Z,6.83
2019-02-24T19:45:34.157Z,6.70
2019-02-24T19:48:15.008Z,6.03
2019-02-24T19:50:55.546Z,6.90
2019-02-24T19:53:36.094Z,6.57
2019-02-24T19:56:16.798Z,6.50
2019-02-24T19:58:57.274Z,6.93
2019-02-24T20:01:37.762Z,6.73
2019-02-24T20:04:18.712Z,6.83
2019-02-24T20:06:59.298Z,7.27
2019-02-24T20:09:40.286Z,7.57
2019-02-24T20:12:21.074Z,6.80
2019-02-24T20:15:01.984Z,7.13
2019-02-24T20:17:42.471Z,7.40
2019-02-24T20:20:23.290Z,7.53
2019-02-24T20:23:04.146Z,7.00
2019-02-24T20:25:44.758Z,7.33
2019-02-24T20:28:25.417Z,7.23
2019-02-24T20:31:06.247Z,6.87
2019-02-24T20:33:46.717Z,6.30
2019-02-24T20:36:27.254Z,6.63
2019-02-24T20:39:07.844Z,6.43
2019-02-24T20:41:48.514Z,6.00
2019-02-24T20:44:29.487Z,6.47
2019-02-24T20:47:10.362Z,6.17
2019-02-24T20:49:50.682Z,6.53
2019-02-24T20:52:31.214Z,5.93
2019-02-24T20:55:11.888Z,6.00
2019-02-24T20:57:52.387Z,6.73
2019-02-24T21:00:33.375Z,6.53
2019-02-24T21:03:13.945Z,7.67
2019-02-24T21:05:54.527Z,6.63
2019-02-24T21:08:35.271Z,7.20
2019-02-24T21:11:16.062Z,6.70
2019-02-24T21:13:57.135Z,6.70
2019-02-24T21:16:38.010Z,6.63
2019-02-24T21:19:18.515Z,7.50
2019-02-24T21:21:59.335Z,7.97
2019-02-24T21:24:40.098Z,8.93
2019-02-24T21:27:20.562Z,8.80
2019-02-24T21:30:01.439Z,8.33
2019-02-24T21:32:42.213Z,8.93
2019-02-24T21:35:22.624Z,9.00
2019-02-24T21:38:03.090Z,8.50
2019-02-24T21:40:43.815Z,9.40
2019-02-24T21:43:24.498Z,8.10
2019-02-24T21:46:05.047Z,7.80
2019-02-24T21:48:46.034Z,7.87
2019-02-24T21:51:26.558Z,8.17
2019-02-24T21:54:07.261Z,7.83
2019-02-24T21:56:47.853Z,8.63
2019-02-24T21:59:36.821Z,7.33
2019-02-24T22:02:11.542Z,7.87
2019-02-24T22:04:52.219Z,7.57
2019-02-24T22:07:33.102Z,7.77
2019-02-24T22:10:13.391Z,8.27
2019-02-24T22:12:54.469Z,7.73
2019-02-24T22:15:35.158Z,8.30
2019-02-24T22:18:16.062Z,7.33
2019-02-24T22:20:56.514Z,7.80
2019-02-24T22:23:37.178Z,7.67
2019-02-24T22:26:17.538Z,7.10
2019-02-24T22:28:58.242Z,7.03
2019-02-24T22:31:38.970Z,6.97
2019-02-24T22:34:19.586Z,6.77
2019-02-24T22:37:00.630Z,6.37
2019-02-24T22:43:00.590Z,7.30
2019-02-24T22:45:40.958Z,6.63
2019-02-24T22:48:25.028Z,6.00
2019-02-24T22:51:05.778Z,6.57
2019-02-24T22:53:46.825Z,6.37
2019-02-24T22:56:27.682Z,6.67
2019-02-24T22:59:08.362Z,5.93
2019-02-24T23:01:49.205Z,5.90
2019-02-24T23:04:30.287Z,6.33
2019-02-24T23:07:10.967Z,6.27
2019-02-24T23:09:51.320Z,6.47
2019-02-24T23:12:32.018Z,7.73
2019-02-24T23:15:12.938Z,6.80
2019-02-24T23:17:53.586Z,6.97
2019-02-24T23:20:34.112Z,7.13
2019-02-24T23:23:14.890Z,6.40
2019-02-24T23:29:14.817Z,7.00
2019-02-24T23:31:55.509Z,6.30
2019-02-24T23:34:36.329Z,6.67
2019-02-24T23:37:17.144Z,7.00
2019-02-24T23:39:58.090Z,6.77
2019-02-24T23:42:38.970Z,6.53
2019-02-24T23:48:39.214Z,7.07
2019-02-24T23:51:19.988Z,7.00
2019-02-24T23:54:00.583Z,7.43
2019-02-24T23:56:41.151Z,7.40
2019-02-24T23:59:21.773Z,7.30
